Informes METAR cercanos

 

LELL - Sabadell, Spain
Distance from station: O 25km
Actualización: 25/02/2024 17:30:00
Poco nuboso
Poco nuboso
 Viento del SSO
Viento: SSO 9 km/h
Temperatura: 14°C
Rocío: 5°C
Humedad: 55%
Barómetro: 1004 hPa
Clouds: Poco nuboso
Visibility: 10 km
Cloud details: Poco nuboso 1372 m
2024/02/25 16:30 LELL 251630Z 20005KT 160V230 9999 FEW045 14/05 Q1004
LEBL - Barcelona Airpor, Spain
Distance from station: SO 38km
Actualización: 25/02/2024 17:30:00
Poco nuboso
Poco nuboso
 Viento del SO
Viento: SO 17 km/h
Temperatura: 13°C
Rocío: 9°C
Humedad: 77%
Barómetro: 1004 hPa
Clouds: Poco nuboso
Visibility: 10 km
Cloud details: Poco nuboso 1920 m
2024/02/25 16:30 LEBL 251630Z 22009KT 9999 FEW063 13/09 Q1004 NOSIG
 
LEGE - Gerona/Costa Bra, Spain
Distance from station: NE 52km
Actualización: 25/02/2024 17:30:00
Poco nuboso
Poco nuboso
 Viento del SSE
Viento: SSE 24 km/h
Temperatura: 13°C
Rocío: 5°C
Humedad: 59%
Barómetro: 1002 hPa
Clouds: Poco nuboso
Visibility: 10 km
Cloud details: Poco nuboso 914 m
2024/02/25 16:30 LEGE 251630Z 16013KT 9999 FEW030 13/05 Q1002
LERS - Reus (civ/Mil), Spain
Distance from station: OSO 111km
Actualización: 25/02/2024 17:30:00
Despejado
Despejado
 Viento del S
Viento: S 6 km/h
Temperatura: 14°C
Rocío: 7°C
Humedad: 63%
Barómetro: 1004 hPa
Resumen: Despejado
Visibility: greater than 10 km
2024/02/25 16:30 LERS 251630Z 19003KT 140V230 CAVOK 14/07 Q1004
 
LESU - Pirineus/La Seu, Spain
Distance from station: NO 124km
Actualización: 25/02/2024 17:30:00
Parcialmente nuboso
Parcialmente nuboso
 Viento del SSO
Viento: SSO 9 km/h
Temperatura: 9°C
Wind Chill: 7°C
Rocío: 3°C
Humedad: 66%
Barómetro: 1003 hPa
Clouds: Parcialmente nuboso
Visibility: 10 km
Cloud details: Parcialmente nuboso 1067 m
2024/02/25 16:30 LESU 251630Z 21005KT 170V250 9999 SCT035 09/03 Q1003
LFMP - Perpignan/Rivesa, France
Distance from station: NNE 141km
Actualización: 25/02/2024 17:30:00
Muy nuboso
Muy nuboso
 Viento del ENE
Viento: ENE 9 km/h
Temperatura: 10°C
Wind Chill: 9°C
Rocío: 6°C
Humedad: 76%
Barómetro: 1002 hPa
Clouds: Muy nuboso
Visibility: 10 km
Cloud details: Poco nuboso 1006 m
Muy nuboso 2256 m
2024/02/25 16:30 LFMP 251630Z AUTO 07005KT 9999 FEW033 BKN074 10/06 Q1002 NOSIG